Time,TemperatureF,DewpointF,PressureIn,WindDirection,WindDirectionDegrees,WindSpeedMPH,WindSpeedGustMPH,Humidity,HourlyPrecipIn,Conditions,Clouds,dailyrainin,SolarRadiationWatts/m^2,SoftwareType,DateUTC
2013-03-05 00:22:00,61.0,55.0,-100.00,South,181,6.0,12.0,82,0.00,,,0.00,0.000000,,2013-03-05 06:22:00,
2013-03-05 00:32:00,61.0,55.0,-100.00,South,181,6.0,12.0,82,0.00,,,0.00,0.000000,,2013-03-05 06:32:00,
2013-03-05 00:42:00,61.0,55.0,-100.00,South,181,6.0,12.0,82,0.00,,,0.00,0.000000,,2013-03-05 06:42:00,
2013-03-05 00:51:00,62.0,55.0,-100.00,South,185,5.0,12.0,77,0.00,,,0.00,0.000000,,2013-03-05 06:51:00,
2013-03-05 01:11:00,62.0,55.0,-100.00,South,185,5.0,12.0,77,0.00,,,0.00,0.000000,,2013-03-05 07:11:00,
2013-03-05 01:22:00,62.0,55.0,-100.00,South,185,5.0,12.0,77,0.00,,,0.00,0.000000,,2013-03-05 07:22:00,
2013-03-05 01:31:00,62.0,55.0,-100.00,South,185,5.0,12.0,77,0.00,,,0.00,0.000000,,2013-03-05 07:31:00,
2013-03-05 01:41:00,62.0,55.0,-100.00,South,185,5.0,12.0,77,0.00,,,0.00,0.000000,,2013-03-05 07:41:00,
2013-03-05 01:51:00,62.0,56.0,-100.00,SSW,203,5.0,13.0,80,0.00,,,0.00,0.000000,,2013-03-05 07:51:00,
2013-03-05 02:21:00,62.0,56.0,-100.00,SSW,203,5.0,13.0,80,0.00,,,0.00,0.000000,,2013-03-05 08:21:00,
2013-03-05 02:31:00,62.0,56.0,-100.00,SSW,203,5.0,13.0,80,0.00,,,0.00,0.000000,,2013-03-05 08:31:00,
2013-03-05 02:41:00,62.0,56.0,-100.00,SSW,203,5.0,13.0,80,0.00,,,0.00,0.000000,,2013-03-05 08:41:00,
2013-03-05 02:51:00,62.0,55.0,-100.00,SSW,201,4.0,11.0,79,0.00,,,0.00,0.000000,,2013-03-05 08:51:00,
2013-03-05 03:11:00,62.0,55.0,-100.00,SSW,201,4.0,11.0,79,0.00,,,0.00,0.000000,,2013-03-05 09:11:00,
2013-03-05 03:21:00,62.0,55.0,-100.00,SSW,201,4.0,11.0,79,0.00,,,0.00,0.000000,,2013-03-05 09:21:00,
2013-03-05 03:31:00,62.0,55.0,-100.00,SSW,201,4.0,11.0,79,0.00,,,0.00,0.000000,,2013-03-05 09:31:00,
2013-03-05 03:42:00,62.0,55.0,-100.00,SSW,201,4.0,11.0,79,0.00,,,0.00,0.000000,,2013-03-05 09:42:00,
2013-03-05 03:51:00,62.0,56.0,-100.00,SW,214,3.0,10.0,80,0.00,,,0.00,0.000000,,2013-03-05 09:51:00,
2013-03-05 04:11:00,62.0,56.0,-100.00,SW,214,3.0,10.0,80,0.00,,,0.00,0.000000,,2013-03-05 10:11:00,
2013-03-05 04:21:00,62.0,56.0,-100.00,SW,214,3.0,10.0,80,0.00,,,0.00,0.000000,,2013-03-05 10:21:00,
2013-03-05 04:32:00,62.0,56.0,-100.00,SW,214,3.0,10.0,80,0.00,,,0.00,0.000000,,2013-03-05 10:32:00,
2013-03-05 04:42:00,62.0,56.0,-100.00,SW,214,3.0,10.0,80,0.00,,,0.00,0.000000,,2013-03-05 10:42:00,
2013-03-05 04:51:00,62.0,56.0,-100.00,SSW,204,4.0,8.0,81,0.00,,,0.00,0.000000,,2013-03-05 10:51:00,
2013-03-05 05:11:00,62.0,56.0,-100.00,SSW,204,4.0,8.0,81,0.00,,,0.00,0.000000,,2013-03-05 11:11:00,
2013-03-05 05:22:00,62.0,56.0,-100.00,SSW,204,4.0,8.0,81,0.00,,,0.00,0.000000,,2013-03-05 11:22:00,
2013-03-05 05:32:00,62.0,56.0,-100.00,SSW,204,4.0,8.0,81,0.00,,,0.00,0.000000,,2013-03-05 11:32:00,
2013-03-05 05:42:00,62.0,56.0,-100.00,SSW,204,4.0,8.0,81,0.00,,,0.00,0.000000,,2013-03-05 11:42:00,
2013-03-05 05:51:00,62.0,56.0,-100.00,SSW,202,5.0,11.0,82,0.00,,,0.00,0.000000,,2013-03-05 11:51:00,
2013-03-05 06:22:00,62.0,56.0,-100.00,SSW,202,5.0,11.0,82,0.00,,,0.00,0.000000,,2013-03-05 12:22:00,
2013-03-05 06:32:00,62.0,56.0,-100.00,SSW,202,5.0,11.0,82,0.00,,,0.00,0.000000,,2013-03-05 12:32:00,
2013-03-05 06:42:00,62.0,56.0,-100.00,SSW,202,5.0,11.0,82,0.00,,,0.00,0.000000,,2013-03-05 12:42:00,
2013-03-05 06:51:00,63.0,57.0,-100.00,SW,218,5.0,13.0,81,0.00,,,0.00,6.000000,,2013-03-05 12:51:00,
2013-03-05 07:21:00,63.0,57.0,-100.00,SW,218,5.0,13.0,81,0.00,,,0.00,6.000000,,2013-03-05 13:21:00,
2013-03-05 07:32:00,63.0,57.0,-100.00,SW,218,5.0,13.0,81,0.00,,,0.00,6.000000,,2013-03-05 13:32:00,
2013-03-05 07:42:00,63.0,57.0,-100.00,SW,218,5.0,13.0,81,0.00,,,0.00,6.000000,,2013-03-05 13:42:00,
2013-03-05 07:51:00,65.0,59.0,-100.00,West,269,4.0,14.0,80,0.00,,,0.00,58.000000,,2013-03-05 13:51:00,
2013-03-05 08:11:00,65.0,59.0,-100.00,West,269,4.0,14.0,80,0.00,,,0.00,58.000000,,2013-03-05 14:11:00,
2013-03-05 08:22:00,65.0,59.0,-100.00,West,269,4.0,14.0,80,0.00,,,0.00,58.000000,,2013-03-05 14:22:00,
2013-03-05 08:32:00,65.0,59.0,-100.00,West,269,4.0,14.0,80,0.00,,,0.00,58.000000,,2013-03-05 14:32:00,
2013-03-05 08:42:00,65.0,59.0,-100.00,West,269,4.0,14.0,80,0.00,,,0.00,58.000000,,2013-03-05 14:42:00,
2013-03-05 08:51:00,66.0,59.0,-100.00,SW,232,6.0,16.0,78,0.00,,,0.00,81.000000,,2013-03-05 14:51:00,
2013-03-05 09:11:00,66.0,59.0,-100.00,SW,232,6.0,16.0,78,0.00,,,0.00,81.000000,,2013-03-05 15:11:00,
2013-03-05 09:21:00,66.0,59.0,-100.00,SW,232,6.0,16.0,78,0.00,,,0.00,81.000000,,2013-03-05 15:21:00,
2013-03-05 09:32:00,66.0,59.0,-100.00,SW,232,6.0,16.0,78,0.00,,,0.00,81.000000,,2013-03-05 15:32:00,
2013-03-05 09:42:00,66.0,59.0,-100.00,SW,232,6.0,16.0,78,0.00,,,0.00,81.000000,,2013-03-05 15:42:00,
2013-03-05 09:51:00,69.0,59.0,-100.00,SW,232,7.0,17.0,71,0.00,,,0.00,273.000000,,2013-03-05 15:51:00,
2013-03-05 10:21:00,69.0,59.0,-100.00,SW,232,7.0,17.0,71,0.00,,,0.00,273.000000,,2013-03-05 16:21:00,
2013-03-05 10:32:00,69.0,59.0,-100.00,SW,232,7.0,17.0,71,0.00,,,0.00,273.000000,,2013-03-05 16:32:00,
2013-03-05 10:42:00,69.0,59.0,-100.00,SW,232,7.0,17.0,71,0.00,,,0.00,273.000000,,2013-03-05 16:42:00,
2013-03-05 10:51:00,70.0,60.0,-100.00,SW,228,8.0,16.0,71,0.00,,,0.00,320.000000,,2013-03-05 16:51:00,
2013-03-05 11:21:00,70.0,60.0,-100.00,SW,228,8.0,16.0,71,0.00,,,0.00,320.000000,,2013-03-05 17:21:00,
2013-03-05 11:32:00,70.0,60.0,-100.00,SW,228,8.0,16.0,71,0.00,,,0.00,320.000000,,2013-03-05 17:32:00,
2013-03-05 11:42:00,70.0,60.0,-100.00,SW,228,8.0,16.0,71,0.00,,,0.00,320.000000,,2013-03-05 17:42:00,
2013-03-05 11:51:00,71.0,60.0,-100.00,SW,220,10.0,19.0,69,0.00,,,0.00,624.000000,,2013-03-05 17:51:00,
2013-03-05 12:11:00,71.0,60.0,-100.00,SW,220,10.0,19.0,69,0.00,,,0.00,624.000000,,2013-03-05 18:11:00,
2013-03-05 12:22:00,71.0,60.0,-100.00,SW,220,10.0,19.0,69,0.00,,,0.00,624.000000,,2013-03-05 18:22:00,
2013-03-05 12:32:00,71.0,60.0,-100.00,SW,220,10.0,19.0,69,0.00,,,0.00,624.000000,,2013-03-05 18:32:00,
2013-03-05 12:42:00,71.0,60.0,-100.00,SW,220,10.0,19.0,69,0.00,,,0.00,624.000000,,2013-03-05 18:42:00,
2013-03-05 12:51:00,69.0,60.0,-100.00,SW,222,7.0,19.0,74,0.00,,,0.00,313.000000,,2013-03-05 18:51:00,
2013-03-05 13:11:00,69.0,60.0,-100.00,SW,222,7.0,19.0,74,0.00,,,0.00,313.000000,,2013-03-05 19:11:00,
2013-03-05 13:21:00,69.0,60.0,-100.00,SW,222,7.0,19.0,74,0.00,,,0.00,313.000000,,2013-03-05 19:21:00,
2013-03-05 13:32:00,69.0,60.0,-100.00,SW,222,7.0,19.0,74,0.00,,,0.00,313.000000,,2013-03-05 19:32:00,
2013-03-05 13:42:00,69.0,60.0,-100.00,SW,222,7.0,19.0,74,0.00,,,0.00,313.000000,,2013-03-05 19:42:00,
2013-03-05 13:51:00,72.0,61.0,-100.00,SW,227,7.0,17.0,69,0.00,,,0.00,397.000000,,2013-03-05 19:51:00,
2013-03-05 14:22:00,72.0,61.0,-100.00,SW,227,7.0,17.0,69,0.00,,,0.00,397.000000,,2013-03-05 20:22:00,
2013-03-05 14:32:00,72.0,61.0,-100.00,SW,227,7.0,17.0,69,0.00,,,0.00,397.000000,,2013-03-05 20:32:00,
2013-03-05 14:42:00,72.0,61.0,-100.00,SW,227,7.0,17.0,69,0.00,,,0.00,397.000000,,2013-03-05 20:42:00,
2013-03-05 14:51:00,73.0,61.0,-100.00,WSW,250,7.0,19.0,67,0.00,,,0.00,503.000000,,2013-03-05 20:51:00,
2013-03-05 15:11:00,73.0,61.0,-100.00,WSW,250,7.0,19.0,67,0.00,,,0.00,503.000000,,2013-03-05 21:11:00,
2013-03-05 15:21:00,73.0,61.0,-100.00,WSW,250,7.0,19.0,67,0.00,,,0.00,503.000000,,2013-03-05 21:21:00,
2013-03-05 15:32:00,73.0,61.0,-100.00,WSW,250,7.0,19.0,67,0.00,,,0.00,503.000000,,2013-03-05 21:32:00,
2013-03-05 15:42:00,73.0,61.0,-100.00,WSW,250,7.0,19.0,67,0.00,,,0.00,503.000000,,2013-03-05 21:42:00,
2013-03-05 15:51:00,71.0,60.0,-100.00,West,270,8.0,22.0,68,0.00,,,0.00,417.000000,,2013-03-05 21:51:00,
2013-03-05 16:22:00,71.0,60.0,-100.00,West,270,8.0,22.0,68,0.00,,,0.00,417.000000,,2013-03-05 22:22:00,
2013-03-05 16:32:00,71.0,60.0,-100.00,West,270,8.0,22.0,68,0.00,,,0.00,417.000000,,2013-03-05 22:32:00,
2013-03-05 16:42:00,71.0,60.0,-100.00,West,270,8.0,22.0,68,0.00,,,0.00,417.000000,,2013-03-05 22:42:00,
2013-03-05 16:51:00,70.0,60.0,-100.00,WNW,302,4.0,14.0,71,0.00,,,0.00,137.000000,,2013-03-05 22:51:00,
2013-03-05 17:21:00,70.0,60.0,-100.00,WNW,302,4.0,14.0,71,0.00,,,0.00,137.000000,,2013-03-05 23:21:00,
2013-03-05 17:32:00,70.0,60.0,-100.00,WNW,302,4.0,14.0,71,0.00,,,0.00,137.000000,,2013-03-05 23:32:00,
2013-03-05 17:42:00,70.0,60.0,-100.00,WNW,302,4.0,14.0,71,0.00,,,0.00,137.000000,,2013-03-05 23:42:00,
2013-03-05 17:51:00,69.0,50.0,-100.00,NNW,345,7.0,17.0,50,0.00,,,0.00,66.000000,,2013-03-05 23:51:00,
2013-03-05 18:11:00,69.0,50.0,-100.00,NNW,345,7.0,17.0,50,0.00,,,0.00,66.000000,,2013-03-06 00:11:00,
2013-03-05 18:21:00,69.0,50.0,-100.00,NNW,345,7.0,17.0,50,0.00,,,0.00,66.000000,,2013-03-06 00:21:00,
2013-03-05 18:32:00,69.0,50.0,-100.00,NNW,345,7.0,17.0,50,0.00,,,0.00,66.000000,,2013-03-06 00:32:00,
2013-03-05 18:42:00,69.0,50.0,-100.00,NNW,345,7.0,17.0,50,0.00,,,0.00,66.000000,,2013-03-06 00:42:00,
2013-03-05 18:51:00,64.0,47.0,-100.00,North,356,7.0,15.0,53,0.00,,,0.00,1.000000,,2013-03-06 00:51:00,
2013-03-05 19:21:00,64.0,47.0,-100.00,North,356,7.0,15.0,53,0.00,,,0.00,1.000000,,2013-03-06 01:21:00,
2013-03-05 19:32:00,64.0,47.0,-100.00,North,356,7.0,15.0,53,0.00,,,0.00,1.000000,,2013-03-06 01:32:00,
2013-03-05 19:42:00,64.0,47.0,-100.00,North,356,7.0,15.0,53,0.00,,,0.00,1.000000,,2013-03-06 01:42:00,
2013-03-05 19:51:00,60.0,42.0,-100.00,North,349,5.0,13.0,52,0.00,,,0.00,0.000000,,2013-03-06 01:51:00,
2013-03-05 20:11:00,60.0,42.0,-100.00,North,349,5.0,13.0,52,0.00,,,0.00,0.000000,,2013-03-06 02:11:00,
2013-03-05 20:22:00,60.0,42.0,-100.00,North,349,5.0,13.0,52,0.00,,,0.00,0.000000,,2013-03-06 02:22:00,
2013-03-05 20:32:00,60.0,42.0,-100.00,North,349,5.0,13.0,52,0.00,,,0.00,0.000000,,2013-03-06 02:32:00,
2013-03-05 20:42:00,60.0,42.0,-100.00,North,349,5.0,13.0,52,0.00,,,0.00,0.000000,,2013-03-06 02:42:00,
2013-03-05 20:51:00,56.0,42.0,-100.00,North,3,4.0,11.0,59,0.00,,,0.00,0.000000,,2013-03-06 02:51:00,
2013-03-05 21:11:00,56.0,42.0,-100.00,North,3,4.0,11.0,59,0.00,,,0.00,0.000000,,2013-03-06 03:11:00,
2013-03-05 21:22:00,56.0,42.0,-100.00,North,3,4.0,11.0,59,0.00,,,0.00,0.000000,,2013-03-06 03:22:00,
2013-03-05 21:32:00,56.0,42.0,-100.00,North,3,4.0,11.0,59,0.00,,,0.00,0.000000,,2013-03-06 03:32:00,
2013-03-05 21:42:00,56.0,42.0,-100.00,North,3,4.0,11.0,59,0.00,,,0.00,0.000000,,2013-03-06 03:42:00,
2013-03-05 21:51:00,53.0,42.0,-100.00,NNW,348,3.0,10.0,65,0.00,,,0.00,0.000000,,2013-03-06 03:51:00,
2013-03-05 22:21:00,53.0,42.0,-100.00,NNW,348,3.0,10.0,65,0.00,,,0.00,0.000000,,2013-03-06 04:21:00,
2013-03-05 22:32:00,53.0,42.0,-100.00,NNW,348,3.0,10.0,65,0.00,,,0.00,0.000000,,2013-03-06 04:32:00,
2013-03-05 22:42:00,53.0,42.0,-100.00,NNW,348,3.0,10.0,65,0.00,,,0.00,0.000000,,2013-03-06 04:42:00,
2013-03-05 22:51:00,49.0,42.0,-100.00,WNW,296,2.0,6.0,76,0.00,,,0.00,0.000000,,2013-03-06 04:51:00,
2013-03-05 23:11:00,49.0,42.0,-100.00,WNW,296,2.0,6.0,76,0.00,,,0.00,0.000000,,2013-03-06 05:11:00,
2013-03-05 23:22:00,49.0,42.0,-100.00,WNW,296,2.0,6.0,76,0.00,,,0.00,0.000000,,2013-03-06 05:22:00,
2013-03-05 23:32:00,49.0,42.0,-100.00,WNW,296,2.0,6.0,76,0.00,,,0.00,0.000000,,2013-03-06 05:32:00,
2013-03-05 23:42:00,49.0,42.0,-100.00,WNW,296,2.0,6.0,76,0.00,,,0.00,0.000000,,2013-03-06 05:42:00,
2013-03-05 23:51:00,44.0,41.0,-100.00,WNW,286,1.0,2.0,90,0.00,,,0.00,0.000000,,2013-03-06 05:51:00,